sensor_id;sensor_type;location;lat;lon;timestamp;temperature;humidity
12981;DHT22;6555;50.468;8.480;2022-12-29T00:04:35;12.40;60.80
12981;DHT22;6555;50.468;8.480;2022-12-29T00:09:38;12.40;60.90
12981;DHT22;6555;50.468;8.480;2022-12-29T00:14:41;12.50;61.00
12981;DHT22;6555;50.468;8.480;2022-12-29T00:20:03;12.50;60.90
12981;DHT22;6555;50.468;8.480;2022-12-29T00:25:24;12.70;60.90
12981;DHT22;6555;50.468;8.480;2022-12-29T00:30:44;12.70;60.80
12981;DHT22;6555;50.468;8.480;2022-12-29T00:36:09;12.80;60.80
12981;DHT22;6555;50.468;8.480;2022-12-29T00:41:13;12.90;60.80
12981;DHT22;6555;50.468;8.480;2022-12-29T00:46:36;12.90;60.80
12981;DHT22;6555;50.468;8.480;2022-12-29T00:51:41;13.00;60.70
12981;DHT22;6555;50.468;8.480;2022-12-29T00:56:46;13.00;60.60
12981;DHT22;6555;50.468;8.480;2022-12-29T01:01:52;13.00;60.60
12981;DHT22;6555;50.468;8.480;2022-12-29T01:06:57;13.00;60.50
12981;DHT22;6555;50.468;8.480;2022-12-29T01:12:00;13.00;60.50
12981;DHT22;6555;50.468;8.480;2022-12-29T01:17:04;13.00;60.70
12981;DHT22;6555;50.468;8.480;2022-12-29T01:22:08;13.00;60.90
12981;DHT22;6555;50.468;8.480;2022-12-29T01:27:11;12.90;60.90
12981;DHT22;6555;50.468;8.480;2022-12-29T01:32:15;12.80;61.10
12981;DHT22;6555;50.468;8.480;2022-12-29T01:37:20;12.80;61.30
12981;DHT22;6555;50.468;8.480;2022-12-29T01:42:24;12.70;61.40
12981;DHT22;6555;50.468;8.480;2022-12-29T01:47:31;12.70;61.50
12981;DHT22;6555;50.468;8.480;2022-12-29T01:52:41;12.70;61.70
12981;DHT22;6555;50.468;8.480;2022-12-29T01:57:48;12.70;62.00
12981;DHT22;6555;50.468;8.480;2022-12-29T02:02:53;12.70;62.20
12981;DHT22;6555;50.468;8.480;2022-12-29T02:07:58;12.70;62.30
12981;DHT22;6555;50.468;8.480;2022-12-29T02:13:02;12.70;62.30
12981;DHT22;6555;50.468;8.480;2022-12-29T02:18:18;12.70;62.30
12981;DHT22;6555;50.468;8.480;2022-12-29T02:29:26;12.70;62.40
12981;DHT22;6555;50.468;8.480;2022-12-29T02:34:40;12.70;62.50
12981;DHT22;6555;50.468;8.480;2022-12-29T02:39:53;12.70;62.60
12981;DHT22;6555;50.468;8.480;2022-12-29T02:45:04;12.70;62.70
12981;DHT22;6555;50.468;8.480;2022-12-29T02:50:15;12.70;62.70
12981;DHT22;6555;50.468;8.480;2022-12-29T02:55:21;12.70;62.70
12981;DHT22;6555;50.468;8.480;2022-12-29T03:00:24;12.70;62.60
12981;DHT22;6555;50.468;8.480;2022-12-29T03:05:41;12.70;62.60
12981;DHT22;6555;50.468;8.480;2022-12-29T03:10:52;12.70;62.70
12981;DHT22;6555;50.468;8.480;2022-12-29T03:16:04;12.70;62.80
12981;DHT22;6555;50.468;8.480;2022-12-29T03:21:17;12.70;62.80
12981;DHT22;6555;50.468;8.480;2022-12-29T03:26:22;12.70;63.00
12981;DHT22;6555;50.468;8.480;2022-12-29T03:31:26;12.70;63.00
12981;DHT22;6555;50.468;8.480;2022-12-29T03:36:36;12.70;63.20
12981;DHT22;6555;50.468;8.480;2022-12-29T03:41:43;12.60;63.20
12981;DHT22;6555;50.468;8.480;2022-12-29T03:46:48;12.60;63.40
12981;DHT22;6555;50.468;8.480;2022-12-29T03:51:52;12.60;63.60
12981;DHT22;6555;50.468;8.480;2022-12-29T03:56:57;12.50;63.70
12981;DHT22;6555;50.468;8.480;2022-12-29T04:02:18;12.60;63.90
12981;DHT22;6555;50.468;8.480;2022-12-29T04:07:23;12.60;63.90
12981;DHT22;6555;50.468;8.480;2022-12-29T04:12:28;12.60;63.90
12981;DHT22;6555;50.468;8.480;2022-12-29T04:17:32;12.60;63.90
12981;DHT22;6555;50.468;8.480;2022-12-29T04:22:38;12.70;63.90
12981;DHT22;6555;50.468;8.480;2022-12-29T04:27:42;12.70;63.80
12981;DHT22;6555;50.468;8.480;2022-12-29T04:33:14;12.80;63.70
12981;DHT22;6555;50.468;8.480;2022-12-29T04:38:21;12.80;63.60
12981;DHT22;6555;50.468;8.480;2022-12-29T04:43:26;12.80;63.50
12981;DHT22;6555;50.468;8.480;2022-12-29T04:48:47;12.80;63.50
12981;DHT22;6555;50.468;8.480;2022-12-29T04:54:21;12.80;63.40
12981;DHT22;6555;50.468;8.480;2022-12-29T04:59:32;12.80;63.50
12981;DHT22;6555;50.468;8.480;2022-12-29T05:04:35;12.70;63.60
12981;DHT22;6555;50.468;8.480;2022-12-29T05:09:39;12.80;63.70
12981;DHT22;6555;50.468;8.480;2022-12-29T05:14:42;12.80;63.70
12981;DHT22;6555;50.468;8.480;2022-12-29T05:19:45;12.80;63.70
12981;DHT22;6555;50.468;8.480;2022-12-29T05:24:50;12.80;63.70
12981;DHT22;6555;50.468;8.480;2022-12-29T05:29:55;12.80;63.60
12981;DHT22;6555;50.468;8.480;2022-12-29T05:34:58;12.80;63.60
12981;DHT22;6555;50.468;8.480;2022-12-29T05:40:06;12.80;63.60
12981;DHT22;6555;50.468;8.480;2022-12-29T05:45:09;12.80;63.50
12981;DHT22;6555;50.468;8.480;2022-12-29T05:50:35;12.80;63.40
12981;DHT22;6555;50.468;8.480;2022-12-29T05:55:49;12.80;63.30
12981;DHT22;6555;50.468;8.480;2022-12-29T06:00:54;12.80;63.30
12981;DHT22;6555;50.468;8.480;2022-12-29T06:05:57;12.80;63.30
12981;DHT22;6555;50.468;8.480;2022-12-29T06:11:03;12.80;63.30
12981;DHT22;6555;50.468;8.480;2022-12-29T06:16:06;12.90;63.30
12981;DHT22;6555;50.468;8.480;2022-12-29T06:21:12;12.90;63.30
12981;DHT22;6555;50.468;8.480;2022-12-29T06:26:16;12.80;63.10
12981;DHT22;6555;50.468;8.480;2022-12-29T06:31:22;12.90;63.20
12981;DHT22;6555;50.468;8.480;2022-12-29T06:36:25;12.90;63.20
12981;DHT22;6555;50.468;8.480;2022-12-29T06:41:29;12.90;63.10
12981;DHT22;6555;50.468;8.480;2022-12-29T06:46:56;12.90;63.10
12981;DHT22;6555;50.468;8.480;2022-12-29T06:51:59;13.00;63.10
12981;DHT22;6555;50.468;8.480;2022-12-29T06:57:14;12.90;63.20
12981;DHT22;6555;50.468;8.480;2022-12-29T07:02:17;13.00;63.30
12981;DHT22;6555;50.468;8.480;2022-12-29T07:07:21;12.90;63.30
12981;DHT22;6555;50.468;8.480;2022-12-29T07:12:25;12.90;63.30
12981;DHT22;6555;50.468;8.480;2022-12-29T07:17:28;12.90;63.50
12981;DHT22;6555;50.468;8.480;2022-12-29T07:22:31;12.80;63.40
12981;DHT22;6555;50.468;8.480;2022-12-29T07:27:36;12.90;63.60
12981;DHT22;6555;50.468;8.480;2022-12-29T07:32:39;12.80;63.60
12981;DHT22;6555;50.468;8.480;2022-12-29T07:37:42;12.80;63.70
12981;DHT22;6555;50.468;8.480;2022-12-29T07:42:46;12.80;63.60
12981;DHT22;6555;50.468;8.480;2022-12-29T07:47:50;12.80;63.80
12981;DHT22;6555;50.468;8.480;2022-12-29T07:52:53;12.80;63.60
12981;DHT22;6555;50.468;8.480;2022-12-29T07:57:58;12.90;63.70
12981;DHT22;6555;50.468;8.480;2022-12-29T08:03:01;12.90;63.60
12981;DHT22;6555;50.468;8.480;2022-12-29T08:08:04;12.90;63.40
12981;DHT22;6555;50.468;8.480;2022-12-29T08:13:08;12.90;63.30
12981;DHT22;6555;50.468;8.480;2022-12-29T08:18:11;12.90;63.30
12981;DHT22;6555;50.468;8.480;2022-12-29T08:23:14;13.00;63.10
12981;DHT22;6555;50.468;8.480;2022-12-29T08:28:19;13.00;63.20
12981;DHT22;6555;50.468;8.480;2022-12-29T08:33:22;13.00;63.20
12981;DHT22;6555;50.468;8.480;2022-12-29T08:38:26;13.00;63.50
12981;DHT22;6555;50.468;8.480;2022-12-29T08:43:31;13.00;63.70
12981;DHT22;6555;50.468;8.480;2022-12-29T08:48:33;12.90;63.70
12981;DHT22;6555;50.468;8.480;2022-12-29T08:53:36;12.90;64.00
12981;DHT22;6555;50.468;8.480;2022-12-29T08:58:41;12.90;63.80
12981;DHT22;6555;50.468;8.480;2022-12-29T09:03:44;12.80;63.60
12981;DHT22;6555;50.468;8.480;2022-12-29T09:09:07;12.70;63.80
12981;DHT22;6555;50.468;8.480;2022-12-29T09:14:12;12.70;64.10
12981;DHT22;6555;50.468;8.480;2022-12-29T09:19:15;12.70;64.30
12981;DHT22;6555;50.468;8.480;2022-12-29T09:24:18;12.70;64.60
12981;DHT22;6555;50.468;8.480;2022-12-29T09:29:22;12.70;64.80
12981;DHT22;6555;50.468;8.480;2022-12-29T09:34:25;12.70;64.80
12981;DHT22;6555;50.468;8.480;2022-12-29T09:39:29;12.70;64.70
12981;DHT22;6555;50.468;8.480;2022-12-29T09:44:46;12.70;64.70
12981;DHT22;6555;50.468;8.480;2022-12-29T09:49:53;12.80;64.70
12981;DHT22;6555;50.468;8.480;2022-12-29T09:54:58;12.80;64.60
12981;DHT22;6555;50.468;8.480;2022-12-29T10:00:14;12.80;64.60
12981;DHT22;6555;50.468;8.480;2022-12-29T10:05:27;12.80;64.70
12981;DHT22;6555;50.468;8.480;2022-12-29T10:10:36;12.80;64.70
12981;DHT22;6555;50.468;8.480;2022-12-29T10:15:49;12.80;64.80
12981;DHT22;6555;50.468;8.480;2022-12-29T10:21:00;12.80;65.00
12981;DHT22;6555;50.468;8.480;2022-12-29T10:26:12;12.80;65.00
12981;DHT22;6555;50.468;8.480;2022-12-29T10:31:21;12.80;65.00
12981;DHT22;6555;50.468;8.480;2022-12-29T10:36:28;12.80;65.10
12981;DHT22;6555;50.468;8.480;2022-12-29T10:41:38;12.80;65.20
12981;DHT22;6555;50.468;8.480;2022-12-29T10:46:44;12.80;64.90
12981;DHT22;6555;50.468;8.480;2022-12-29T10:51:56;12.80;64.80
12981;DHT22;6555;50.468;8.480;2022-12-29T10:57:03;12.80;64.70
12981;DHT22;6555;50.468;8.480;2022-12-29T11:02:30;12.80;64.80
12981;DHT22;6555;50.468;8.480;2022-12-29T11:07:40;12.70;64.80
12981;DHT22;6555;50.468;8.480;2022-12-29T11:12:55;12.60;65.40
12981;DHT22;6555;50.468;8.480;2022-12-29T11:17:59;12.50;65.00
12981;DHT22;6555;50.468;8.480;2022-12-29T11:23:22;12.50;65.10
12981;DHT22;6555;50.468;8.480;2022-12-29T11:28:26;12.40;65.10
12981;DHT22;6555;50.468;8.480;2022-12-29T11:33:34;12.40;65.40
12981;DHT22;6555;50.468;8.480;2022-12-29T11:38:40;12.40;65.50
12981;DHT22;6555;50.468;8.480;2022-12-29T11:43:44;12.40;65.50
12981;DHT22;6555;50.468;8.480;2022-12-29T11:48:50;12.50;65.50
12981;DHT22;6555;50.468;8.480;2022-12-29T11:53:56;12.60;65.40
12981;DHT22;6555;50.468;8.480;2022-12-29T12:04:39;12.60;65.00
12981;DHT22;6555;50.468;8.480;2022-12-29T12:09:45;12.70;64.80
12981;DHT22;6555;50.468;8.480;2022-12-29T12:14:54;12.70;64.10
12981;DHT22;6555;50.468;8.480;2022-12-29T12:20:18;12.70;63.80
12981;DHT22;6555;50.468;8.480;2022-12-29T12:25:27;12.70;63.70
12981;DHT22;6555;50.468;8.480;2022-12-29T12:30:37;12.80;63.50
12981;DHT22;6555;50.468;8.480;2022-12-29T12:35:46;12.80;62.60
12981;DHT22;6555;50.468;8.480;2022-12-29T12:41:08;12.80;62.00
12981;DHT22;6555;50.468;8.480;2022-12-29T12:52:07;12.80;61.20
12981;DHT22;6555;50.468;8.480;2022-12-29T12:57:16;12.80;61.20
12981;DHT22;6555;50.468;8.480;2022-12-29T13:02:34;12.90;60.60
12981;DHT22;6555;50.468;8.480;2022-12-29T13:07:50;13.00;60.20
12981;DHT22;6555;50.468;8.480;2022-12-29T13:13:04;13.00;60.30
12981;DHT22;6555;50.468;8.480;2022-12-29T13:18:17;13.00;60.20
12981;DHT22;6555;50.468;8.480;2022-12-29T13:23:28;13.00;60.10
12981;DHT22;6555;50.468;8.480;2022-12-29T13:28:40;13.00;60.00
12981;DHT22;6555;50.468;8.480;2022-12-29T13:33:51;13.10;60.30
12981;DHT22;6555;50.468;8.480;2022-12-29T13:39:03;13.10;59.50
12981;DHT22;6555;50.468;8.480;2022-12-29T13:44:09;13.10;59.10
12981;DHT22;6555;50.468;8.480;2022-12-29T13:49:19;13.00;58.50
12981;DHT22;6555;50.468;8.480;2022-12-29T13:54:34;13.10;58.70
12981;DHT22;6555;50.468;8.480;2022-12-29T13:59:47;13.10;58.80
12981;DHT22;6555;50.468;8.480;2022-12-29T14:04:57;13.10;58.40
12981;DHT22;6555;50.468;8.480;2022-12-29T14:10:03;13.20;58.30
12981;DHT22;6555;50.468;8.480;2022-12-29T14:15:15;13.20;58.30
12981;DHT22;6555;50.468;8.480;2022-12-29T14:20:23;13.30;58.30
12981;DHT22;6555;50.468;8.480;2022-12-29T14:26:00;13.30;58.10
12981;DHT22;6555;50.468;8.480;2022-12-29T14:31:33;13.30;58.30
12981;DHT22;6555;50.468;8.480;2022-12-29T14:36:53;13.30;58.20
12981;DHT22;6555;50.468;8.480;2022-12-29T14:42:03;13.20;57.70
12981;DHT22;6555;50.468;8.480;2022-12-29T14:47:08;13.20;57.70
12981;DHT22;6555;50.468;8.480;2022-12-29T14:52:15;13.10;57.60
12981;DHT22;6555;50.468;8.480;2022-12-29T14:57:29;13.00;57.60
12981;DHT22;6555;50.468;8.480;2022-12-29T15:02:36;12.90;57.80
12981;DHT22;6555;50.468;8.480;2022-12-29T15:07:41;12.90;57.70
12981;DHT22;6555;50.468;8.480;2022-12-29T15:12:51;12.80;57.80
12981;DHT22;6555;50.468;8.480;2022-12-29T15:17:55;12.80;57.80
12981;DHT22;6555;50.468;8.480;2022-12-29T15:23:02;12.70;57.90
12981;DHT22;6555;50.468;8.480;2022-12-29T15:28:07;12.70;57.90
12981;DHT22;6555;50.468;8.480;2022-12-29T15:33:18;12.60;58.00
12981;DHT22;6555;50.468;8.480;2022-12-29T15:38:23;12.60;58.10
12981;DHT22;6555;50.468;8.480;2022-12-29T15:43:50;12.60;58.10
12981;DHT22;6555;50.468;8.480;2022-12-29T15:48:55;12.60;58.10
12981;DHT22;6555;50.468;8.480;2022-12-29T15:53:59;12.50;58.40
12981;DHT22;6555;50.468;8.480;2022-12-29T15:59:03;12.50;58.40
12981;DHT22;6555;50.468;8.480;2022-12-29T16:04:07;12.50;58.20
12981;DHT22;6555;50.468;8.480;2022-12-29T16:09:15;12.40;58.10
12981;DHT22;6555;50.468;8.480;2022-12-29T16:14:23;12.30;58.10
12981;DHT22;6555;50.468;8.480;2022-12-29T16:19:29;12.20;58.00
12981;DHT22;6555;50.468;8.480;2022-12-29T16:24:37;12.10;58.10
12981;DHT22;6555;50.468;8.480;2022-12-29T16:29:43;12.10;58.00
12981;DHT22;6555;50.468;8.480;2022-12-29T16:34:46;12.00;58.00
12981;DHT22;6555;50.468;8.480;2022-12-29T16:39:49;12.00;57.90
12981;DHT22;6555;50.468;8.480;2022-12-29T16:45:07;11.90;58.00
12981;DHT22;6555;50.468;8.480;2022-12-29T16:50:28;11.90;57.90
12981;DHT22;6555;50.468;8.480;2022-12-29T16:55:32;11.80;57.80
12981;DHT22;6555;50.468;8.480;2022-12-29T17:00:37;11.80;57.90
12981;DHT22;6555;50.468;8.480;2022-12-29T17:05:40;11.80;57.90
12981;DHT22;6555;50.468;8.480;2022-12-29T17:10:42;11.70;58.10
12981;DHT22;6555;50.468;8.480;2022-12-29T17:16:05;11.70;57.80
12981;DHT22;6555;50.468;8.480;2022-12-29T17:21:09;11.60;57.40
12981;DHT22;6555;50.468;8.480;2022-12-29T17:26:12;11.60;57.30
12981;DHT22;6555;50.468;8.480;2022-12-29T17:31:17;11.60;57.30
12981;DHT22;6555;50.468;8.480;2022-12-29T17:36:20;11.60;57.20
12981;DHT22;6555;50.468;8.480;2022-12-29T17:41:23;11.50;57.20
12981;DHT22;6555;50.468;8.480;2022-12-29T17:46:27;11.50;57.10
12981;DHT22;6555;50.468;8.480;2022-12-29T17:51:31;11.40;57.70
12981;DHT22;6555;50.468;8.480;2022-12-29T17:56:33;11.40;57.10
12981;DHT22;6555;50.468;8.480;2022-12-29T18:01:38;11.40;57.00
12981;DHT22;6555;50.468;8.480;2022-12-29T18:06:46;11.30;57.00
12981;DHT22;6555;50.468;8.480;2022-12-29T18:11:49;11.20;57.00
12981;DHT22;6555;50.468;8.480;2022-12-29T18:16:53;11.10;57.10
12981;DHT22;6555;50.468;8.480;2022-12-29T18:21:56;11.10;57.20
12981;DHT22;6555;50.468;8.480;2022-12-29T18:26:59;11.10;57.20
12981;DHT22;6555;50.468;8.480;2022-12-29T18:32:05;11.00;57.10
12981;DHT22;6555;50.468;8.480;2022-12-29T18:37:11;10.90;57.10
12981;DHT22;6555;50.468;8.480;2022-12-29T18:42:16;11.00;57.20
12981;DHT22;6555;50.468;8.480;2022-12-29T18:47:21;10.90;57.20
12981;DHT22;6555;50.468;8.480;2022-12-29T18:52:24;10.80;57.20
12981;DHT22;6555;50.468;8.480;2022-12-29T18:57:27;10.80;57.30
12981;DHT22;6555;50.468;8.480;2022-12-29T19:02:33;10.80;57.40
12981;DHT22;6555;50.468;8.480;2022-12-29T19:07:36;10.80;57.50
12981;DHT22;6555;50.468;8.480;2022-12-29T19:12:39;10.80;57.60
12981;DHT22;6555;50.468;8.480;2022-12-29T19:17:43;10.80;57.60
12981;DHT22;6555;50.468;8.480;2022-12-29T19:22:46;10.90;57.70
12981;DHT22;6555;50.468;8.480;2022-12-29T19:27:50;10.90;57.70
12981;DHT22;6555;50.468;8.480;2022-12-29T19:32:55;10.90;57.60
12981;DHT22;6555;50.468;8.480;2022-12-29T19:37:59;11.00;57.60
12981;DHT22;6555;50.468;8.480;2022-12-29T19:43:02;11.00;57.60
12981;DHT22;6555;50.468;8.480;2022-12-29T19:48:08;11.00;57.70
12981;DHT22;6555;50.468;8.480;2022-12-29T19:53:13;11.00;57.70
12981;DHT22;6555;50.468;8.480;2022-12-29T19:58:16;11.00;57.70
12981;DHT22;6555;50.468;8.480;2022-12-29T20:03:21;11.00;57.60
12981;DHT22;6555;50.468;8.480;2022-12-29T20:08:24;11.00;57.60
12981;DHT22;6555;50.468;8.480;2022-12-29T20:13:27;11.00;57.50
12981;DHT22;6555;50.468;8.480;2022-12-29T20:18:32;11.00;57.60
12981;DHT22;6555;50.468;8.480;2022-12-29T20:23:38;10.90;57.60
12981;DHT22;6555;50.468;8.480;2022-12-29T20:28:41;10.90;57.60
12981;DHT22;6555;50.468;8.480;2022-12-29T20:33:46;10.90;57.60
12981;DHT22;6555;50.468;8.480;2022-12-29T20:38:50;10.90;57.60
12981;DHT22;6555;50.468;8.480;2022-12-29T20:43:53;10.90;57.60
12981;DHT22;6555;50.468;8.480;2022-12-29T20:48:58;10.80;57.60
12981;DHT22;6555;50.468;8.480;2022-12-29T20:54:01;10.80;57.70
12981;DHT22;6555;50.468;8.480;2022-12-29T20:59:04;10.80;57.70
12981;DHT22;6555;50.468;8.480;2022-12-29T21:04:29;10.70;57.70
12981;DHT22;6555;50.468;8.480;2022-12-29T21:09:52;10.60;57.70
12981;DHT22;6555;50.468;8.480;2022-12-29T21:14:55;10.60;57.80
12981;DHT22;6555;50.468;8.480;2022-12-29T21:19:59;10.50;57.90
12981;DHT22;6555;50.468;8.480;2022-12-29T21:25:03;10.50;58.00
12981;DHT22;6555;50.468;8.480;2022-12-29T21:30:07;10.50;57.90
12981;DHT22;6555;50.468;8.480;2022-12-29T21:35:12;10.50;58.00
12981;DHT22;6555;50.468;8.480;2022-12-29T21:40:15;10.50;58.10
12981;DHT22;6555;50.468;8.480;2022-12-29T21:45:18;10.50;58.10
12981;DHT22;6555;50.468;8.480;2022-12-29T21:50:28;10.50;58.10
12981;DHT22;6555;50.468;8.480;2022-12-29T21:55:31;10.50;58.10
12981;DHT22;6555;50.468;8.480;2022-12-29T22:00:34;10.40;58.10
12981;DHT22;6555;50.468;8.480;2022-12-29T22:05:56;10.40;58.20
12981;DHT22;6555;50.468;8.480;2022-12-29T22:11:16;10.40;58.10
12981;DHT22;6555;50.468;8.480;2022-12-29T22:16:36;10.40;58.10
12981;DHT22;6555;50.468;8.480;2022-12-29T22:21:41;10.40;58.10
12981;DHT22;6555;50.468;8.480;2022-12-29T22:26:44;10.40;58.30
12981;DHT22;6555;50.468;8.480;2022-12-29T22:31:46;10.40;58.30
12981;DHT22;6555;50.468;8.480;2022-12-29T22:36:51;10.30;58.30
12981;DHT22;6555;50.468;8.480;2022-12-29T22:41:54;10.40;58.30
12981;DHT22;6555;50.468;8.480;2022-12-29T22:46:57;10.30;58.30
12981;DHT22;6555;50.468;8.480;2022-12-29T22:52:01;10.30;58.40
12981;DHT22;6555;50.468;8.480;2022-12-29T22:57:04;10.30;59.20
12981;DHT22;6555;50.468;8.480;2022-12-29T23:02:07;10.30;58.50
12981;DHT22;6555;50.468;8.480;2022-12-29T23:07:12;10.40;58.60
12981;DHT22;6555;50.468;8.480;2022-12-29T23:12:15;10.40;58.60
12981;DHT22;6555;50.468;8.480;2022-12-29T23:17:18;10.40;58.50
12981;DHT22;6555;50.468;8.480;2022-12-29T23:22:22;10.40;58.40
12981;DHT22;6555;50.468;8.480;2022-12-29T23:27:26;10.40;58.40
12981;DHT22;6555;50.468;8.480;2022-12-29T23:32:29;10.40;58.40
12981;DHT22;6555;50.468;8.480;2022-12-29T23:37:33;10.40;58.40
12981;DHT22;6555;50.468;8.480;2022-12-29T23:42:36;10.40;58.40
12981;DHT22;6555;50.468;8.480;2022-12-29T23:47:39;10.30;58.30
12981;DHT22;6555;50.468;8.480;2022-12-29T23:52:43;10.30;58.20
12981;DHT22;6555;50.468;8.480;2022-12-29T23:57:46;10.20;58.10
